Time;durP1;ratioP1;P1;durP2;ratioP2;P2;SDS_P1;SDS_P2;PMS_P1;PMS_P2;Temp;Humidity;BMP_temperature;BMP_pressure;BME280_temperature;BME280_humidity;BME280_pressure;Samples;Min_cycle;Max_cycle;Signal;HPM_P1;HPM_P2
2023/06/21 00:00:18;;;;;;;12.30;11.10;;;;;;;19.17;69.74;100525.63;79140;277;3027302;-71
2023/06/21 00:03:13;;;;;;;12.70;11.50;;;;;;;19.18;69.44;100520.45;79137;277;3027220;-70
2023/06/21 00:05:49;;;;;;;11.80;10.80;;;;;;;19.20;69.38;100522.02;78969;277;3027785;-71
2023/06/21 00:08:25;;;;;;;11.90;10.90;;;;;;;19.21;69.35;100521.45;79836;277;3011571;-72
2023/06/21 00:11:00;;;;;;;12.10;11.00;;;;;;;19.22;69.27;100522.59;79112;277;3029547;-71
2023/06/21 00:13:38;;;;;;;11.90;10.90;;;;;;;19.24;69.15;100525.80;79879;277;3011519;-70
2023/06/21 00:16:14;;;;;;;12.20;11.10;;;;;;;19.26;68.95;100527.06;79101;277;3027519;-72
2023/06/21 00:18:49;;;;;;;12.30;11.20;;;;;;;19.28;68.96;100525.86;79118;277;3026946;-72
2023/06/21 00:21:24;;;;;;;12.00;10.70;;;;;;;19.29;68.84;100525.59;78959;278;3027173;-72
2023/06/21 00:24:02;;;;;;;12.30;11.20;;;;;;;19.29;68.93;100523.66;79117;276;3027626;-72
2023/06/21 00:26:38;;;;;;;12.30;11.20;;;;;;;19.28;68.79;100523.90;79109;277;3027798;-72
2023/06/21 00:29:14;;;;;;;12.30;11.20;;;;;;;19.28;68.86;100522.86;79857;277;3011487;-71
2023/06/21 00:31:51;;;;;;;12.00;10.90;;;;;;;19.27;68.80;100515.48;79845;277;3012723;-72
2023/06/21 00:34:26;;;;;;;10.80;9.90;;;;;;;19.27;68.62;100515.50;79129;277;3027111;-71
2023/06/21 00:37:03;;;;;;;11.60;10.60;;;;;;;19.27;68.85;100514.65;79111;277;3028019;-72
2023/06/21 00:39:38;;;;;;;12.00;11.00;;;;;;;19.24;68.85;100508.46;79130;277;3028161;-70
2023/06/21 00:42:14;;;;;;;12.20;11.30;;;;;;;19.23;68.78;100504.14;79134;277;3027475;-72
2023/06/21 00:44:49;;;;;;;12.70;11.70;;;;;;;19.22;68.69;100508.13;78990;277;3028844;-70
2023/06/21 00:47:25;;;;;;;12.60;11.50;;;;;;;19.19;68.80;100503.89;79144;277;3027889;-71
2023/06/21 00:50:00;;;;;;;11.80;10.70;;;;;;;19.18;68.87;100503.41;79149;277;3028704;-70
2023/06/21 00:52:37;;;;;;;11.40;10.40;;;;;;;19.19;68.74;100503.53;79899;277;3013297;-72
2023/06/21 00:55:14;;;;;;;12.10;10.90;;;;;;;19.20;68.76;100502.90;79165;277;3028333;-72
2023/06/21 00:57:49;;;;;;;12.20;11.20;;;;;;;19.23;68.81;100500.77;79151;276;3027993;-72
2023/06/21 01:00:25;;;;;;;12.00;11.00;;;;;;;19.26;68.97;100501.30;79151;277;3027125;-70
2023/06/21 01:03:00;;;;;;;12.20;11.10;;;;;;;19.26;68.82;100497.58;79122;277;3027812;-71
2023/06/21 01:05:36;;;;;;;12.40;11.10;;;;;;;19.25;68.84;100492.14;79853;277;3011663;-71
2023/06/21 01:08:17;;;;;;;12.80;11.60;;;;;;;19.26;68.71;100495.95;79863;277;3011547;-71
2023/06/21 01:11:01;;;;;;;12.20;10.90;;;;;;;19.27;68.79;100499.10;79125;277;3027490;-70
2023/06/21 01:13:44;;;;;;;12.40;11.40;;;;;;;19.27;68.90;100504.91;79093;277;3028462;-70
2023/06/21 01:16:20;;;;;;;13.30;12.20;;;;;;;19.24;68.84;100510.48;79093;277;3028001;-72
2023/06/21 01:18:55;;;;;;;13.20;12.00;;;;;;;19.20;68.95;100510.73;79104;276;3027628;-72
2023/06/21 01:21:32;;;;;;;11.90;10.80;;;;;;;19.19;68.80;100514.67;79852;277;3011626;-71
2023/06/21 01:24:28;;;;;;;12.30;11.10;;;;;;;19.19;68.80;100518.39;79893;277;3011496;-71
2023/06/21 01:27:30;;;;;;;12.70;11.60;;;;;;;19.20;68.99;100520.48;78989;276;3027561;-70
2023/06/21 01:30:09;;;;;;;12.70;11.60;;;;;;;19.20;68.92;100526.16;78994;271;3027128;-72
2023/06/21 01:32:44;;;;;;;12.30;11.20;;;;;;;19.18;69.06;100529.45;79129;277;3026783;-72
2023/06/21 01:35:20;;;;;;;13.20;12.00;;;;;;;19.17;68.97;100532.19;79903;269;3013657;-72
2023/06/21 01:38:00;;;;;;;12.60;11.50;;;;;;;19.16;68.97;100527.48;79166;277;3027474;-72
2023/06/21 01:40:39;;;;;;;12.80;11.60;;;;;;;19.17;69.10;100522.80;79091;277;3027571;-70
2023/06/21 01:43:14;;;;;;;13.90;12.70;;;;;;;19.18;69.16;100523.25;79120;277;3028587;-71
2023/06/21 01:45:49;;;;;;;13.30;12.20;;;;;;;19.21;69.13;100523.56;79119;277;3027087;-71
2023/06/21 01:48:25;;;;;;;13.20;12.10;;;;;;;19.22;68.91;100520.64;79106;277;3027801;-71
2023/06/21 01:51:01;;;;;;;13.10;12.10;;;;;;;19.22;68.91;100525.06;79098;277;3028555;-72
2023/06/21 01:53:36;;;;;;;12.40;11.30;;;;;;;19.20;69.02;100525.55;79081;277;3028832;-71
2023/06/21 01:56:15;;;;;;;13.10;12.00;;;;;;;19.17;68.92;100525.77;79082;277;3027338;-72
2023/06/21 01:58:53;;;;;;;12.90;11.90;;;;;;;19.17;69.16;100528.97;78926;277;3026825;-72
2023/06/21 02:01:28;;;;;;;12.90;11.70;;;;;;;19.17;69.00;100532.15;79052;276;3027448;-70
2023/06/21 02:04:05;;;;;;;13.40;12.20;;;;;;;19.15;68.99;100535.52;79883;277;3011384;-70
2023/06/21 02:06:42;;;;;;;13.30;12.00;;;;;;;19.12;69.08;100536.98;79124;277;3027579;-71
2023/06/21 02:09:20;;;;;;;13.50;12.20;;;;;;;19.09;69.21;100531.82;79120;277;3027188;-72
2023/06/21 02:11:56;;;;;;;14.00;12.50;;;;;;;19.11;69.34;100531.71;79110;277;3027295;-72
2023/06/21 02:14:31;;;;;;;12.90;11.90;;;;;;;19.15;69.13;100531.23;79090;277;3027067;-72
2023/06/21 02:17:08;;;;;;;13.50;12.20;;;;;;;19.18;69.12;100535.27;79141;277;3027454;-72
2023/06/21 02:19:44;;;;;;;13.50;12.40;;;;;;;19.19;69.11;100536.23;79092;277;3028419;-70
2023/06/21 02:22:21;;;;;;;13.60;12.40;;;;;;;19.21;69.00;100534.69;79158;277;3027245;-71
2023/06/21 02:24:56;;;;;;;13.50;12.40;;;;;;;19.22;69.02;100532.13;79103;277;3027466;-70
2023/06/21 02:27:31;;;;;;;12.70;11.60;;;;;;;19.22;69.07;100529.86;79130;277;3027386;-71
2023/06/21 02:30:12;;;;;;;13.90;12.60;;;;;;;19.23;68.86;100532.05;79887;277;3011482;-71
2023/06/21 02:32:48;;;;;;;13.70;12.50;;;;;;;19.26;68.86;100534.33;79112;277;3027040;-72
2023/06/21 02:35:23;;;;;;;14.40;13.00;;;;;;;19.27;68.85;100535.31;79105;277;3026932;-71
2023/06/21 02:37:59;;;;;;;13.30;12.20;;;;;;;19.29;68.80;100537.51;78946;277;3027463;-72
2023/06/21 02:40:34;;;;;;;13.20;11.90;;;;;;;19.31;68.59;100537.36;79076;277;3027516;-72
2023/06/21 02:43:11;;;;;;;13.40;12.10;;;;;;;19.33;68.72;100541.06;79100;277;3027951;-71
2023/06/21 02:45:48;;;;;;;13.20;12.10;;;;;;;19.37;68.60;100542.41;79671;277;3011465;-71
2023/06/21 02:48:23;;;;;;;13.00;11.90;;;;;;;19.44;68.64;100543.35;79087;277;3028166;-72
2023/06/21 02:50:59;;;;;;;13.30;12.10;;;;;;;19.49;68.45;100543.23;79846;277;3011579;-72
2023/06/21 02:53:35;;;;;;;13.50;12.30;;;;;;;19.55;68.16;100538.77;79848;277;3011360;-71
2023/06/21 02:56:11;;;;;;;13.00;11.80;;;;;;;19.60;68.21;100532.77;79889;277;3011392;-72
2023/06/21 02:58:47;;;;;;;13.00;11.80;;;;;;;19.67;68.02;100536.73;79140;277;3027374;-70
2023/06/21 03:01:22;;;;;;;12.40;11.20;;;;;;;19.73;67.78;100537.84;79117;277;3027527;-72
2023/06/21 03:04:01;;;;;;;12.80;11.60;;;;;;;19.83;67.52;100540.66;79908;277;3011146;-71
2023/06/21 03:06:37;;;;;;;13.30;12.10;;;;;;;19.93;67.34;100541.15;78970;278;3027069;-70
2023/06/21 03:09:12;;;;;;;13.20;12.00;;;;;;;20.03;67.22;100546.98;79170;277;3028633;-71
2023/06/21 03:11:50;;;;;;;13.20;12.00;;;;;;;20.12;67.01;100545.81;79111;277;3027475;-71
2023/06/21 03:14:25;;;;;;;13.40;12.10;;;;;;;20.22;66.79;100546.81;79036;277;3026654;-72
2023/06/21 03:17:02;;;;;;;13.80;12.60;;;;;;;20.31;66.45;100551.58;79901;277;3011464;-70
2023/06/21 03:19:38;;;;;;;13.30;12.20;;;;;;;20.41;66.30;100552.80;79038;277;3027545;-71
2023/06/21 03:22:13;;;;;;;12.30;11.20;;;;;;;20.50;66.17;100552.29;79086;277;3013946;-72
2023/06/21 03:24:50;;;;;;;12.10;11.10;;;;;;;20.61;66.01;100549.46;79860;277;3011529;-71
2023/06/21 03:27:27;;;;;;;12.60;11.40;;;;;;;20.74;65.89;100538.36;78920;279;3027691;-71
2023/06/21 03:30:02;;;;;;;11.90;11.00;;;;;;;20.90;65.82;100542.48;78982;277;3027334;-70
2023/06/21 03:32:37;;;;;;;12.20;11.30;;;;;;;21.06;65.27;100541.01;78970;277;3028965;-71
2023/06/21 03:35:14;;;;;;;12.40;11.40;;;;;;;21.29;64.92;100541.31;79752;277;3011734;-72
2023/06/21 03:37:50;;;;;;;12.00;11.00;;;;;;;21.64;64.74;100537.75;79011;277;3027306;-72
2023/06/21 03:40:25;;;;;;;11.70;10.70;;;;;;;22.16;64.23;100536.30;79009;277;3026627;-71
2023/06/21 03:43:02;;;;;;;12.90;11.60;;;;;;;22.85;63.58;100538.44;79767;278;3011392;-72
2023/06/21 03:45:37;;;;;;;11.50;10.50;;;;;;;23.66;62.16;100538.64;79000;277;3027096;-72
2023/06/21 03:48:13;;;;;;;11.10;10.00;;;;;;;24.43;60.35;100536.02;79783;277;3012621;-72
2023/06/21 03:50:49;;;;;;;10.70;9.60;;;;;;;25.18;58.34;100533.14;79711;277;3011418;-72
2023/06/21 03:53:27;;;;;;;10.80;9.90;;;;;;;25.81;56.11;100534.46;78982;277;3027484;-72
2023/06/21 03:56:04;;;;;;;9.60;8.80;;;;;;;26.46;54.30;100533.70;78987;277;3028927;-72
2023/06/21 03:58:39;;;;;;;9.20;8.50;;;;;;;27.01;52.63;100528.05;79048;277;3027425;-72
2023/06/21 04:01:16;;;;;;;9.90;8.90;;;;;;;27.63;51.50;100530.60;79790;277;3012617;-71
2023/06/21 04:03:52;;;;;;;10.30;9.20;;;;;;;27.90;48.79;100538.25;78939;277;3028970;-71
2023/06/21 04:06:27;;;;;;;10.00;9.20;;;;;;;27.72;48.33;100540.48;78948;277;3026947;-72
2023/06/21 04:09:05;;;;;;;9.70;8.80;;;;;;;27.69;47.75;100537.05;79733;278;3011487;-71
2023/06/21 04:11:40;;;;;;;9.30;8.50;;;;;;;27.85;48.44;100538.08;78927;277;3026684;-72
2023/06/21 04:14:15;;;;;;;9.90;9.00;;;;;;;28.44;47.43;100541.88;78908;278;3027638;-72
2023/06/21 04:16:52;;;;;;;10.30;9.30;;;;;;;28.79;46.03;100542.40;79703;269;3011525;-72
2023/06/21 04:19:28;;;;;;;9.60;8.80;;;;;;;28.46;44.81;100546.27;78954;277;3026586;-71
2023/06/21 04:22:03;;;;;;;9.60;8.70;;;;;;;27.98;45.24;100547.10;78962;278;3028934;-71
2023/06/21 04:24:39;;;;;;;9.30;8.50;;;;;;;27.50;45.86;100547.59;79727;277;3011551;-71
2023/06/21 04:27:15;;;;;;;9.50;8.60;;;;;;;27.05;46.40;100545.15;79819;277;3011432;-71
2023/06/21 04:29:51;;;;;;;10.20;9.40;;;;;;;26.69;46.71;100551.58;79867;277;3012101;-71
2023/06/21 04:32:31;;;;;;;10.50;9.20;;;;;;;26.34;47.16;100550.75;79864;277;3011088;-71
2023/06/21 04:35:10;;;;;;;11.20;10.10;;;;;;;26.01;47.74;100553.64;79131;277;3027567;-71
2023/06/21 04:37:47;;;;;;;10.60;9.60;;;;;;;25.69;48.62;100553.34;79116;277;3027305;-71
2023/06/21 04:40:23;;;;;;;10.90;10.00;;;;;;;25.46;49.26;100552.58;79096;277;3028554;-70
2023/06/21 04:43:01;;;;;;;10.40;9.50;;;;;;;25.27;49.91;100551.08;79105;277;3026903;-70
2023/06/21 04:45:37;;;;;;;11.20;10.10;;;;;;;25.14;50.11;100552.10;79130;277;3027339;-70
2023/06/21 04:48:12;;;;;;;10.70;9.60;;;;;;;25.04;50.63;100552.03;79121;277;3028465;-71
2023/06/21 04:50:47;;;;;;;11.00;10.10;;;;;;;24.97;50.73;100545.00;78973;278;3027329;-71
2023/06/21 04:53:29;;;;;;;11.00;10.00;;;;;;;24.96;51.40;100545.99;79816;277;3011528;-71
2023/06/21 04:56:05;;;;;;;10.70;9.70;;;;;;;24.99;51.77;100542.52;79090;277;3027081;-71
2023/06/21 04:58:40;;;;;;;10.90;9.90;;;;;;;25.11;52.42;100543.83;79091;277;3026787;-71
2023/06/21 05:01:16;;;;;;;11.30;10.20;;;;;;;25.43;52.09;100541.68;79713;277;3012894;-71
2023/06/21 05:03:53;;;;;;;11.70;9.70;;;;;;;26.05;51.80;100540.56;79699;278;3011285;-70
2023/06/21 05:06:28;;;;;;;10.70;9.20;;;;;;;27.01;51.64;100538.88;79104;277;3028038;-71
2023/06/21 05:09:04;;;;;;;9.90;9.00;;;;;;;28.22;49.12;100542.67;79118;277;3027872;-70
2023/06/21 05:11:39;;;;;;;9.60;8.80;;;;;;;28.79;46.67;100544.16;79113;277;3027475;-71
2023/06/21 05:14:15;;;;;;;10.30;9.30;;;;;;;29.38;46.28;100542.20;79882;277;3011568;-71
2023/06/21 05:16:51;;;;;;;9.80;8.90;;;;;;;30.38;44.60;100542.38;79881;277;3012975;-72
2023/06/21 05:19:28;;;;;;;9.70;8.80;;;;;;;31.37;42.59;100540.96;79889;277;3011494;-72
2023/06/21 05:22:04;;;;;;;8.70;8.10;;;;;;;32.28;40.12;100541.95;79931;277;3011590;-71
2023/06/21 05:24:39;;;;;;;8.80;8.00;;;;;;;32.86;38.46;100543.77;79003;277;3027811;-72
2023/06/21 05:27:16;;;;;;;8.80;8.00;;;;;;;33.42;36.77;100539.86;79879;277;3013142;-72
2023/06/21 05:29:52;;;;;;;8.50;7.90;;;;;;;33.80;35.84;100542.84;79108;277;3027520;-72
2023/06/21 05:32:28;;;;;;;8.40;7.80;;;;;;;34.29;35.46;100545.21;79865;277;3011370;-72
2023/06/21 05:35:05;;;;;;;9.50;8.70;;;;;;;34.88;34.18;100550.11;79851;277;3011404;-70
2023/06/21 05:37:40;;;;;;;9.40;8.40;;;;;;;35.50;32.68;100548.97;79131;277;3026903;-71
2023/06/21 05:40:17;;;;;;;8.50;7.60;;;;;;;36.22;31.71;100550.96;79859;277;3011493;-71
2023/06/21 05:42:53;;;;;;;8.50;7.80;;;;;;;36.37;30.82;100554.99;79106;277;3027211;-72
2023/06/21 05:45:28;;;;;;;9.80;8.40;;;;;;;35.97;30.76;100546.95;79121;277;3027888;-72
2023/06/21 05:48:05;;;;;;;8.90;8.20;;;;;;;35.76;31.11;100551.67;79883;277;3011622;-71
2023/06/21 05:50:40;;;;;;;9.30;8.50;;;;;;;35.82;31.24;100553.79;79071;277;3027507;-72
2023/06/21 05:53:16;;;;;;;9.80;9.00;;;;;;;36.13;31.08;100555.40;79093;277;3027702;-71
2023/06/21 05:55:54;;;;;;;9.20;8.50;;;;;;;36.50;30.34;100561.69;79869;275;3011389;-72
2023/06/21 05:58:31;;;;;;;10.00;9.10;;;;;;;36.86;30.18;100559.95;79125;277;3027271;-72
2023/06/21 06:01:07;;;;;;;9.90;9.10;;;;;;;37.22;29.29;100556.23;79842;277;3011480;-71
2023/06/21 06:03:44;;;;;;;10.20;9.20;;;;;;;37.46;28.71;100552.06;79858;277;3011484;-72
2023/06/21 06:06:20;;;;;;;9.90;9.20;;;;;;;37.64;28.52;100550.39;79846;277;3011572;-71
2023/06/21 06:08:55;;;;;;;10.30;8.50;;;;;;;37.80;27.76;100548.95;79145;277;3027439;-72
2023/06/21 06:11:31;;;;;;;9.60;8.80;;;;;;;37.90;27.89;100552.25;79860;277;3012910;-72
2023/06/21 06:14:09;;;;;;;9.20;8.30;;;;;;;38.07;27.39;100550.34;79893;277;3011560;-70
2023/06/21 06:16:48;;;;;;;9.60;8.80;;;;;;;38.33;27.16;100551.85;79099;277;3026950;-70
2023/06/21 06:19:23;;;;;;;10.30;8.90;;;;;;;38.79;26.81;100548.70;79099;277;3027053;-71
2023/06/21 06:21:59;;;;;;;9.30;8.60;;;;;;;38.95;26.08;100547.07;79827;277;3011438;-72
2023/06/21 06:24:35;;;;;;;9.30;8.10;;;;;;;39.23;25.94;100547.62;79845;277;3011531;-71
2023/06/21 06:27:11;;;;;;;9.50;8.60;;;;;;;39.35;25.46;100549.51;79865;277;3011437;-71
2023/06/21 06:29:47;;;;;;;9.50;8.60;;;;;;;39.52;25.59;100548.23;79089;277;3028599;-71
2023/06/21 06:32:23;;;;;;;9.40;8.60;;;;;;;39.77;25.23;100541.39;79118;277;3026672;-74
2023/06/21 06:34:58;;;;;;;9.30;8.60;;;;;;;40.05;24.88;100535.41;79079;277;3027880;-72
2023/06/21 06:37:33;;;;;;;9.20;8.50;;;;;;;40.31;24.63;100536.77;79122;277;3027530;-72
2023/06/21 06:40:13;;;;;;;8.80;7.90;;;;;;;40.51;24.07;100536.77;79860;277;3013283;-71
2023/06/21 06:42:48;;;;;;;8.80;8.00;;;;;;;40.52;23.74;100539.80;79116;277;3026881;-72
2023/06/21 06:45:24;;;;;;;9.70;7.70;;;;;;;40.53;23.58;100542.29;79831;277;3011181;-72
2023/06/21 06:48:00;;;;;;;9.00;8.20;;;;;;;40.65;24.26;100542.41;79859;277;3011516;-71
2023/06/21 06:50:38;;;;;;;9.70;8.20;;;;;;;41.09;23.62;100536.19;79713;281;3011532;-73
2023/06/21 06:53:13;;;;;;;8.10;7.50;;;;;;;41.36;22.66;100534.89;79109;277;3027423;-73
2023/06/21 06:55:50;;;;;;;8.50;7.80;;;;;;;41.49;22.60;100529.44;79857;289;3011537;-73
2023/06/21 06:58:24;;;;;;;;;;;;;;;41.65;22.59;100526.08;79143;277;3027589;-73
2023/06/21 07:00:58;;;;;;;8.30;7.70;;;;;;;41.80;22.61;100528.27;80344;277;3011509;-72
2023/06/21 07:03:34;;;;;;;9.60;8.20;;;;;;;41.96;22.23;100524.46;79112;277;3027802;-73
2023/06/21 07:06:09;;;;;;;8.90;8.10;;;;;;;42.01;22.28;100524.05;79092;277;3026935;-73
2023/06/21 07:08:49;;;;;;;8.10;7.40;;;;;;;42.02;21.98;100526.64;79857;277;3012984;-73
2023/06/21 07:11:24;;;;;;;8.60;7.80;;;;;;;41.96;22.24;100525.11;79136;277;3026594;-73
2023/06/21 07:14:01;;;;;;;8.50;7.60;;;;;;;42.15;21.96;100527.58;79769;278;3012832;-73
2023/06/21 07:16:43;;;;;;;8.30;7.50;;;;;;;42.36;21.70;100525.16;79082;277;3027383;-73
2023/06/21 07:19:18;;;;;;;8.30;7.60;;;;;;;42.55;21.36;100531.88;79090;277;3027723;-73
2023/06/21 07:21:54;;;;;;;10.30;7.20;;;;;;;42.67;20.92;100534.17;79712;277;3011558;-73
2023/06/21 07:24:30;;;;;;;8.50;7.70;;;;;;;42.63;20.62;100533.71;79836;277;3011761;-73
2023/06/21 07:27:07;;;;;;;8.10;7.50;;;;;;;42.58;20.76;100538.67;79816;301;3011563;-72
2023/06/21 07:29:42;;;;;;;8.60;7.60;;;;;;;42.60;20.72;100532.46;79111;277;3026752;-72
2023/06/21 07:32:18;;;;;;;9.90;7.90;;;;;;;42.69;20.79;100531.55;79851;277;3013139;-73
2023/06/21 07:34:55;;;;;;;8.30;7.60;;;;;;;42.91;20.74;100525.88;79859;277;3011583;-73
2023/06/21 07:37:30;;;;;;;11.90;7.80;;;;;;;42.93;20.38;100525.39;79102;277;3026543;-73
2023/06/21 07:40:08;;;;;;;8.10;7.40;;;;;;;42.86;20.36;100522.27;79866;277;3011608;-74
2023/06/21 07:42:43;;;;;;;7.90;7.30;;;;;;;42.92;20.18;100515.91;79119;277;3027176;-73
2023/06/21 07:45:19;;;;;;;8.30;7.30;;;;;;;43.01;20.52;100528.24;79822;277;3011491;-73
2023/06/21 07:47:56;;;;;;;8.10;7.40;;;;;;;43.18;20.29;100522.08;79117;277;3028118;-72
2023/06/21 07:50:32;;;;;;;8.90;7.20;;;;;;;42.99;20.34;100522.99;79895;277;3011507;-73
2023/06/21 07:53:08;;;;;;;8.40;7.70;;;;;;;42.46;20.23;100524.39;79873;277;3011540;-73
2023/06/21 07:55:45;;;;;;;7.60;7.00;;;;;;;41.84;20.80;100519.18;79869;277;3012656;-72
2023/06/21 07:58:20;;;;;;;7.60;7.00;;;;;;;41.34;21.16;100522.17;78966;278;3028358;-73
2023/06/21 08:00:57;;;;;;;8.70;7.50;;;;;;;40.79;21.46;100523.16;79831;277;3012996;-73
2023/06/21 08:03:32;;;;;;;8.30;7.60;;;;;;;40.09;22.33;100523.20;79102;277;3028018;-72
2023/06/21 08:06:08;;;;;;;8.20;7.40;;;;;;;39.55;22.62;100523.98;79862;277;3013198;-72
2023/06/21 08:08:45;;;;;;;7.70;7.10;;;;;;;39.01;22.78;100518.13;79859;277;3011601;-72
2023/06/21 08:11:21;;;;;;;8.30;7.60;;;;;;;38.43;23.34;100514.80;79865;277;3011486;-72
2023/06/21 08:13:57;;;;;;;9.10;8.30;;;;;;;37.94;24.24;100518.51;79844;277;3013048;-72
2023/06/21 08:16:35;;;;;;;8.70;7.90;;;;;;;37.66;24.81;100519.59;79113;277;3026938;-72
2023/06/21 08:19:10;;;;;;;8.30;7.70;;;;;;;37.62;25.23;100511.84;79136;278;3026943;-72
2023/06/21 08:21:47;;;;;;;9.10;8.30;;;;;;;37.66;25.57;100513.75;79868;277;3012345;-72
2023/06/21 08:24:23;;;;;;;8.50;7.80;;;;;;;37.74;25.39;100512.58;79095;277;3028041;-72
2023/06/21 08:26:59;;;;;;;8.70;8.00;;;;;;;37.99;25.69;100515.49;79856;277;3011616;-72
2023/06/21 08:29:35;;;;;;;8.20;7.50;;;;;;;38.34;25.36;100515.04;79860;277;3011487;-72
2023/06/21 08:32:12;;;;;;;8.50;7.90;;;;;;;38.74;24.70;100518.65;79860;277;3013102;-72
2023/06/21 08:34:48;;;;;;;8.40;7.90;;;;;;;38.84;24.12;100519.69;79127;277;3027179;-72
2023/06/21 08:37:25;;;;;;;8.50;7.90;;;;;;;38.73;23.97;100523.50;79143;277;3028780;-72
2023/06/21 08:40:01;;;;;;;8.80;8.10;;;;;;;38.51;24.25;100523.86;79076;277;3028050;-72
2023/06/21 08:42:37;;;;;;;8.90;8.10;;;;;;;38.33;24.38;100522.88;79120;277;3028825;-72
2023/06/21 08:45:13;;;;;;;8.80;7.90;;;;;;;38.41;25.49;100520.61;79129;277;3028300;-77
2023/06/21 08:47:48;;;;;;;8.90;8.20;;;;;;;38.61;24.78;100519.71;79110;277;3028111;-72
2023/06/21 08:50:25;;;;;;;8.70;8.00;;;;;;;38.54;23.84;100519.56;79121;277;3027821;-72
2023/06/21 08:53:02;;;;;;;8.70;8.10;;;;;;;38.48;23.61;100520.45;79077;277;3029508;-72
2023/06/21 08:55:38;;;;;;;9.30;8.50;;;;;;;38.18;24.37;100522.58;78946;277;3027227;-72
2023/06/21 08:58:18;;;;;;;9.40;8.60;;;;;;;37.92;24.83;100521.10;79121;277;3027681;-72
2023/06/21 09:00:54;;;;;;;9.50;8.80;;;;;;;37.52;25.08;100521.10;79082;277;3026815;-72
2023/06/21 09:03:33;;;;;;;9.40;8.80;;;;;;;37.15;25.66;100521.83;79119;277;3027580;-72
2023/06/21 09:06:10;;;;;;;9.20;8.40;;;;;;;36.84;25.96;100519.63;78993;278;3027691;-72
2023/06/21 09:08:45;;;;;;;10.10;9.30;;;;;;;36.53;26.34;100523.87;79147;277;3027115;-72
2023/06/21 09:11:27;;;;;;;9.70;8.90;;;;;;;36.27;27.20;100524.14;79705;277;3011565;-72
2023/06/21 09:14:05;;;;;;;9.10;8.30;;;;;;;36.12;27.25;100518.02;79116;277;3027206;-72
2023/06/21 09:16:53;;;;;;;9.60;8.60;;;;;;;36.23;27.34;100517.20;79073;277;3027107;-72
2023/06/21 09:19:29;;;;;;;8.80;8.00;;;;;;;36.32;27.40;100519.67;79126;277;3027879;-72
2023/06/21 09:22:05;;;;;;;9.30;8.40;;;;;;;36.27;26.94;100520.58;79117;277;3029072;-72
2023/06/21 09:24:41;;;;;;;8.30;7.60;;;;;;;36.19;26.58;100513.64;79129;277;3028064;-72
2023/06/21 09:27:17;;;;;;;9.30;8.30;;;;;;;36.26;25.78;100514.04;79138;277;3027035;-72
2023/06/21 09:29:52;;;;;;;8.30;7.60;;;;;;;36.20;25.04;100514.92;78972;277;3026644;-72
2023/06/21 09:32:29;;;;;;;8.50;7.80;;;;;;;36.23;25.51;100511.42;79101;277;3026900;-72
2023/06/21 09:35:05;;;;;;;8.70;8.10;;;;;;;36.32;25.12;100514.13;79071;277;3027141;-72
2023/06/21 09:37:43;;;;;;;8.60;7.90;;;;;;;36.30;25.28;100515.68;79115;277;3027657;-72
2023/06/21 09:40:19;;;;;;;8.40;7.80;;;;;;;36.22;25.86;100512.14;79116;277;3027088;-72
2023/06/21 09:42:54;;;;;;;8.20;7.60;;;;;;;36.11;25.95;100517.53;79094;277;3026542;-73
2023/06/21 09:45:32;;;;;;;8.90;8.10;;;;;;;36.10;25.71;100510.95;79080;277;3027770;-73
2023/06/21 09:48:08;;;;;;;8.80;8.00;;;;;;;36.12;25.81;100518.55;79121;277;3026646;-72
2023/06/21 09:50:46;;;;;;;8.50;7.90;;;;;;;36.02;25.99;100513.86;79102;277;3030570;-72
2023/06/21 09:53:26;;;;;;;9.70;9.00;;;;;;;35.81;26.25;100510.32;79100;277;3027872;-72
2023/06/21 09:56:00;;;;;;;;;;;;;;;35.53;26.47;100512.38;79108;277;3027002;-72
2023/06/21 09:58:36;;;;;;;9.70;8.80;;;;;;;35.26;27.08;100515.08;80402;277;3011577;-72
2023/06/21 10:01:11;;;;;;;9.10;8.40;;;;;;;35.01;27.54;100517.86;79109;277;3026806;-72
2023/06/21 10:03:48;;;;;;;9.00;8.30;;;;;;;34.75;28.04;100520.01;79136;277;3027013;-72
2023/06/21 10:06:30;;;;;;;8.70;7.90;;;;;;;34.48;28.57;100524.14;79164;277;3028437;-72
2023/06/21 10:09:12;;;;;;;8.80;8.10;;;;;;;34.18;28.83;100526.20;79155;277;3028113;-72
2023/06/21 10:11:49;;;;;;;9.50;8.60;;;;;;;33.90;29.11;100523.86;79104;277;3028711;-72
2023/06/21 10:14:26;;;;;;;9.30;8.60;;;;;;;33.60;29.31;100522.38;79107;277;3026705;-72
2023/06/21 10:17:03;;;;;;;9.00;8.40;;;;;;;33.30;29.83;100520.52;78987;277;3027944;-72
2023/06/21 10:19:39;;;;;;;8.80;8.10;;;;;;;32.99;30.23;100519.86;79085;277;3027527;-72
2023/06/21 10:22:18;;;;;;;9.00;8.20;;;;;;;32.73;30.69;100522.15;79150;277;3028054;-72
2023/06/21 10:24:54;;;;;;;9.50;8.50;;;;;;;32.44;30.94;100523.92;79073;277;3027753;-72
2023/06/21 10:27:30;;;;;;;9.70;8.80;;;;;;;32.15;31.15;100526.41;79131;278;3026741;-72
2023/06/21 10:30:08;;;;;;;9.80;9.10;;;;;;;31.85;31.77;100529.83;79102;277;3026975;-72
2023/06/21 10:32:44;;;;;;;9.30;8.40;;;;;;;31.59;32.49;100528.22;79082;277;3027580;-72
2023/06/21 10:35:22;;;;;;;9.60;8.80;;;;;;;31.34;32.89;100527.85;79069;277;3027917;-72
2023/06/21 10:38:03;;;;;;;9.60;8.80;;;;;;;31.12;33.27;100526.45;79091;277;3027406;-72
2023/06/21 10:40:39;;;;;;;9.80;8.90;;;;;;;30.91;33.66;100527.17;79086;277;3028816;-72
2023/06/21 10:43:15;;;;;;;10.00;8.90;;;;;;;30.76;34.59;100533.45;79094;275;3027007;-72
2023/06/21 10:45:50;;;;;;;9.40;8.70;;;;;;;30.64;35.11;100537.66;79101;277;3028217;-72
2023/06/21 10:48:26;;;;;;;9.90;9.00;;;;;;;30.50;35.53;100538.94;78940;277;3028574;-71
2023/06/21 10:51:04;;;;;;;10.40;9.40;;;;;;;30.40;36.56;100543.25;79107;278;3028504;-77
2023/06/21 10:53:39;;;;;;;9.30;8.60;;;;;;;30.24;36.96;100550.14;79101;277;3026988;-74
2023/06/21 10:56:16;;;;;;;10.20;9.50;;;;;;;30.07;37.97;100557.68;79856;277;3011499;-74
2023/06/21 10:58:52;;;;;;;9.80;8.90;;;;;;;29.89;37.99;100562.05;79182;277;3027375;-74
2023/06/21 11:01:27;;;;;;;10.40;9.30;;;;;;;29.68;38.16;100563.41;78974;278;3031517;-74
2023/06/21 11:04:02;;;;;;;10.00;9.30;;;;;;;29.49;38.80;100565.88;79121;278;3027321;-74
2023/06/21 11:06:43;;;;;;;10.60;9.80;;;;;;;29.29;39.92;100572.54;79091;277;3027530;-74
2023/06/21 11:09:23;;;;;;;10.40;9.60;;;;;;;29.06;41.82;100573.84;79113;277;3027994;-75
2023/06/21 11:12:00;;;;;;;10.40;9.60;;;;;;;28.84;42.23;100575.45;79083;278;3027612;-73
2023/06/21 11:14:35;;;;;;;13.20;12.00;;;;;;;28.68;43.68;100579.59;78953;270;3027521;-73
2023/06/21 11:17:15;;;;;;;11.20;10.30;;;;;;;28.46;44.46;100580.14;79838;277;3011613;-74
2023/06/21 11:19:50;;;;;;;11.30;10.10;;;;;;;28.24;45.74;100597.44;79086;278;3027269;-73
2023/06/21 11:22:27;;;;;;;11.40;10.20;;;;;;;28.06;46.04;100600.10;78690;277;3026561;-73
2023/06/21 11:25:16;;;;;;;12.60;11.30;;;;;;;27.87;46.15;100601.11;79126;277;3026806;-72
2023/06/21 11:28:21;;;;;;;13.20;11.90;;;;;;;27.65;47.22;100608.91;79105;277;3027464;-72
2023/06/21 11:31:17;;;;;;;12.90;11.70;;;;;;;27.36;48.32;100614.20;79109;278;3028138;-72
2023/06/21 11:33:59;;;;;;;12.80;11.50;;;;;;;27.10;49.37;100616.62;79129;277;3027591;-71
2023/06/21 11:36:35;;;;;;;13.60;12.30;;;;;;;26.93;50.40;100608.89;79071;277;3029139;-72
2023/06/21 11:39:27;;;;;;;13.10;12.00;;;;;;;26.74;51.08;100611.15;79001;278;3026980;-72
2023/06/21 11:42:03;;;;;;;13.20;12.10;;;;;;;26.47;51.77;100610.12;79148;277;3028151;-72
2023/06/21 11:44:40;;;;;;;14.40;13.10;;;;;;;26.21;52.38;100601.06;79109;277;3027092;-72
2023/06/21 11:47:24;;;;;;;13.90;12.70;;;;;;;26.03;52.99;100594.48;79084;277;3027302;-73
2023/06/21 11:50:01;;;;;;;13.70;12.70;;;;;;;25.87;53.48;100586.48;79103;277;3027826;-73
2023/06/21 11:52:37;;;;;;;13.90;12.50;;;;;;;25.74;53.56;100578.25;78958;277;3028336;-73